createdAt,value
2022-09-23T00:01:09.469Z,183.33
2022-09-23T00:03:38.292Z,180.73
2022-09-23T00:06:08.100Z,184.83
2022-09-23T00:08:36.002Z,179.10
2022-09-23T00:11:06.088Z,181.97
2022-09-23T00:13:34.586Z,182.83
2022-09-23T00:16:04.303Z,185.33
2022-09-23T00:18:33.546Z,184.13
2022-09-23T00:21:03.967Z,184.40
2022-09-23T00:23:31.456Z,185.00
2022-09-23T00:26:00.326Z,185.07
2022-09-23T00:28:27.896Z,190.00
2022-09-23T00:30:55.482Z,192.47
2022-09-23T00:33:23.132Z,184.47
2022-09-23T00:35:51.987Z,184.20
2022-09-23T00:38:19.480Z,184.20
2022-09-23T00:40:47.428Z,184.97
2022-09-23T00:43:15.411Z,184.10
2022-09-23T00:45:47.965Z,184.37
2022-09-23T00:48:18.037Z,187.83
2022-09-23T00:50:49.090Z,189.63
2022-09-23T00:53:21.103Z,187.10
2022-09-23T00:55:50.352Z,186.77
2022-09-23T00:58:20.903Z,188.27
2022-09-23T01:00:49.344Z,178.13
2022-09-23T01:03:19.141Z,180.83
2022-09-23T01:05:48.124Z,189.40
2022-09-23T01:08:16.078Z,188.60
2022-09-23T01:10:53.368Z,192.43
2022-09-23T01:13:25.638Z,188.50
2022-09-23T01:15:59.391Z,189.97
2022-09-23T01:18:33.054Z,187.10
2022-09-23T01:21:11.828Z,187.00
2022-09-23T01:24:05.527Z,188.77
2022-09-23T01:26:49.739Z,185.80
2022-09-23T01:29:38.689Z,187.47
2022-09-23T01:32:13.499Z,188.80
2022-09-23T01:34:48.460Z,193.27
2022-09-23T01:37:24.704Z,188.63
2022-09-23T01:40:01.041Z,190.10
2022-09-23T01:42:31.838Z,190.57
2022-09-23T01:45:02.841Z,188.77
2022-09-23T01:47:36.404Z,189.10
2022-09-23T01:50:29.891Z,192.07
2022-09-23T01:53:01.092Z,189.97
2022-09-23T01:55:32.048Z,192.67
2022-09-23T01:58:04.757Z,180.57
2022-09-23T02:00:34.973Z,191.57
2022-09-23T02:03:10.215Z,190.87
2022-09-23T02:05:40.899Z,192.83
2022-09-23T02:08:12.089Z,192.20
2022-09-23T02:10:45.592Z,193.43
2022-09-23T02:13:16.049Z,191.63
2022-09-23T02:15:47.214Z,190.13
2022-09-23T02:18:18.230Z,179.03
2022-09-23T02:20:47.334Z,193.03
2022-09-23T02:23:18.331Z,189.63
2022-09-23T02:25:51.556Z,180.70
2022-09-23T02:28:24.045Z,180.93
2022-09-23T02:30:56.493Z,178.67
2022-09-23T02:33:28.846Z,188.07
2022-09-23T02:36:01.087Z,175.80
2022-09-23T02:38:34.695Z,175.00
2022-09-23T02:41:05.964Z,177.67
2022-09-23T02:43:36.419Z,172.73
2022-09-23T02:46:04.411Z,174.63
2022-09-23T02:48:35.451Z,181.47
2022-09-23T02:51:04.217Z,184.73
2022-09-23T02:53:33.409Z,183.27
2022-09-23T02:56:00.983Z,189.23
2022-09-23T02:58:28.807Z,183.43
2022-09-23T03:01:01.916Z,184.87
2022-09-23T03:03:41.306Z,186.80
2022-09-23T03:06:17.000Z,185.03
2022-09-23T03:08:50.380Z,188.37
2022-09-23T03:11:18.101Z,183.90
2022-09-23T03:13:53.704Z,186.50
2022-09-23T03:16:28.068Z,188.47
2022-09-23T03:18:59.078Z,186.77
2022-09-23T03:21:31.444Z,181.50
2022-09-23T03:24:00.825Z,187.40
2022-09-23T03:26:32.147Z,192.37
2022-09-23T03:29:00.666Z,179.80
2022-09-23T03:31:29.626Z,183.70
2022-09-23T03:34:00.175Z,185.57
2022-09-23T03:36:48.080Z,183.13
2022-09-23T03:39:22.888Z,185.47
2022-09-23T03:41:52.409Z,188.47
2022-09-23T03:44:20.468Z,189.27
2022-09-23T03:46:50.430Z,184.27
2022-09-23T03:49:20.695Z,189.03
2022-09-23T03:51:48.197Z,186.30
2022-09-23T03:54:15.695Z,188.93
2022-09-23T03:56:44.090Z,182.80
2022-09-23T03:59:11.914Z,184.80
2022-09-23T04:01:39.545Z,183.30
2022-09-23T04:04:07.537Z,187.67
2022-09-23T04:06:36.768Z,186.83
2022-09-23T04:09:04.471Z,175.70
2022-09-23T04:11:31.953Z,180.03
2022-09-23T04:13:59.811Z,182.90
2022-09-23T04:16:27.484Z,182.23
2022-09-23T04:18:55.023Z,181.43
2022-09-23T04:21:22.569Z,172.70
2022-09-23T04:23:51.397Z,182.70
2022-09-23T04:26:19.198Z,180.97
2022-09-23T04:28:46.730Z,175.97
2022-09-23T04:31:14.636Z,171.47
2022-09-23T04:33:42.195Z,173.67
2022-09-23T04:36:09.717Z,178.67
2022-09-23T04:38:37.222Z,179.80
2022-09-23T04:41:09.490Z,182.33
2022-09-23T04:43:36.972Z,186.73
2022-09-23T04:46:06.286Z,180.60
2022-09-23T04:48:34.620Z,182.40
2022-09-23T04:51:06.052Z,182.17
2022-09-23T04:53:33.942Z,188.33
2022-09-23T04:56:02.718Z,185.33
2022-09-23T04:58:31.697Z,184.43
2022-09-23T05:01:04.355Z,179.93
2022-09-23T05:03:35.653Z,180.83
2022-09-23T05:06:03.186Z,189.47
2022-09-23T05:08:30.705Z,183.57
2022-09-23T05:10:58.788Z,183.80
2022-09-23T05:13:26.670Z,187.00
2022-09-23T05:16:00.085Z,185.67
2022-09-23T05:18:27.943Z,181.33
2022-09-23T05:20:56.244Z,182.63
2022-09-23T05:23:23.945Z,180.30
2022-09-23T05:25:57.534Z,184.10
2022-09-23T05:28:25.036Z,182.70
2022-09-23T05:30:52.577Z,182.17
2022-09-23T05:33:21.625Z,185.27
2022-09-23T05:35:49.528Z,182.53
2022-09-23T05:38:17.601Z,180.77
2022-09-23T05:40:45.142Z,181.27
2022-09-23T05:43:12.676Z,181.13
2022-09-23T05:45:40.196Z,183.37
2022-09-23T05:48:07.683Z,179.90
2022-09-23T05:50:36.507Z,179.67
2022-09-23T05:53:04.026Z,174.57
2022-09-23T05:55:31.515Z,173.43
2022-09-23T05:57:59.006Z,170.73
2022-09-23T06:00:26.877Z,182.13
2022-09-23T06:02:54.401Z,190.80
2022-09-23T06:05:21.939Z,196.13
2022-09-23T06:07:50.824Z,193.00
2022-09-23T06:10:18.412Z,183.17
2022-09-23T06:12:45.927Z,182.87
2022-09-23T06:15:13.428Z,214.70
2022-09-23T06:17:40.912Z,186.83
2022-09-23T06:20:09.356Z,181.83
2022-09-23T06:22:39.827Z,184.63
2022-09-23T06:25:10.144Z,188.17
2022-09-23T06:27:37.973Z,183.23
2022-09-23T06:30:06.610Z,184.67
2022-09-23T06:32:34.415Z,181.10
2022-09-23T06:35:01.904Z,183.93
2022-09-23T06:37:30.557Z,181.77
2022-09-23T06:39:58.191Z,180.40
2022-09-23T06:42:27.415Z,184.53
2022-09-23T06:44:54.908Z,181.03
2022-09-23T06:47:22.404Z,175.83
2022-09-23T06:49:51.465Z,181.67
2022-09-23T06:52:21.053Z,180.57
2022-09-23T06:54:48.958Z,179.83
2022-09-23T06:57:16.497Z,177.67
2022-09-23T06:59:45.427Z,182.87
2022-09-23T07:02:13.193Z,178.03
2022-09-23T07:04:40.887Z,178.13
2022-09-23T07:07:10.324Z,179.17
2022-09-23T07:09:38.427Z,176.90
2022-09-23T07:12:06.056Z,182.30
2022-09-23T07:14:33.592Z,179.73
2022-09-23T07:17:03.149Z,181.07
2022-09-23T07:19:30.798Z,176.93
2022-09-23T07:21:58.285Z,184.63
2022-09-23T07:24:25.777Z,181.00
2022-09-23T07:26:53.860Z,181.33
2022-09-23T07:29:21.526Z,178.40
2022-09-23T07:31:49.078Z,184.77
2022-09-23T07:34:17.975Z,186.43
2022-09-23T07:36:45.488Z,194.43
2022-09-23T07:39:13.590Z,183.83
2022-09-23T07:41:44.321Z,172.10
2022-09-23T07:44:12.523Z,188.53
2022-09-23T07:46:40.209Z,187.77
2022-09-23T07:49:07.949Z,186.20
2022-09-23T07:51:38.665Z,181.80
2022-09-23T07:54:08.606Z,188.73
2022-09-23T07:56:37.411Z,189.70
2022-09-23T07:59:05.300Z,186.63
2022-09-23T08:01:35.412Z,184.80
2022-09-23T08:04:05.477Z,189.37
2022-09-23T08:06:33.538Z,185.67
2022-09-23T08:09:02.550Z,184.77
2022-09-23T08:11:30.223Z,184.70
2022-09-23T08:13:58.565Z,183.40
2022-09-23T08:16:26.257Z,185.93
2022-09-23T08:18:53.862Z,187.97
2022-09-23T08:21:22.286Z,191.27
2022-09-23T08:23:50.651Z,192.73
2022-09-23T08:26:22.029Z,189.73
2022-09-23T08:28:49.936Z,196.03
2022-09-23T08:31:17.564Z,194.93
2022-09-23T08:33:45.134Z,191.00
2022-09-23T08:36:12.825Z,195.73
2022-09-23T08:38:40.350Z,193.93
2022-09-23T08:41:14.011Z,200.23
2022-09-23T08:43:47.763Z,198.03
2022-09-23T08:46:20.768Z,193.60
2022-09-23T08:48:49.333Z,199.13
2022-09-23T08:51:21.056Z,199.13
2022-09-23T08:53:48.582Z,192.13
2022-09-23T08:56:17.555Z,200.67
2022-09-23T08:58:57.050Z,201.20
2022-09-23T09:01:28.999Z,199.53
2022-09-23T09:03:58.174Z,199.07
2022-09-23T09:06:30.888Z,204.53
2022-09-23T09:09:00.860Z,188.13
2022-09-23T09:11:35.115Z,181.57
2022-09-23T09:14:14.176Z,209.10
2022-09-23T09:17:00.137Z,198.83
2022-09-23T09:19:47.585Z,185.60
2022-09-23T09:22:19.957Z,207.57
2022-09-23T09:24:49.695Z,209.67
2022-09-23T09:27:17.346Z,204.10
2022-09-23T09:29:50.056Z,211.73
2022-09-23T09:32:26.588Z,203.73
2022-09-23T09:34:58.828Z,206.23
2022-09-23T09:37:31.676Z,205.33
2022-09-23T09:39:59.392Z,207.57
2022-09-23T09:42:28.619Z,206.73
2022-09-23T09:45:00.509Z,207.60
2022-09-23T09:47:36.871Z,211.30
2022-09-23T09:50:07.775Z,209.20
2022-09-23T09:52:38.932Z,208.63
2022-09-23T09:55:26.467Z,208.57
2022-09-23T09:57:58.131Z,207.70
2022-09-23T10:00:41.748Z,243.67
2022-09-23T10:03:25.471Z,206.93
2022-09-23T10:05:54.299Z,211.73
2022-09-23T10:08:28.050Z,212.47
2022-09-23T10:11:02.675Z,214.30
2022-09-23T10:13:30.835Z,211.50
2022-09-23T10:16:01.012Z,215.47
2022-09-23T10:18:31.758Z,211.77
2022-09-23T10:21:08.692Z,212.07
2022-09-23T10:23:40.412Z,208.90
2022-09-23T10:26:10.122Z,214.43
2022-09-23T10:28:47.135Z,215.57
2022-09-23T10:31:18.121Z,217.73
2022-09-23T10:33:50.099Z,217.63
2022-09-23T10:36:18.176Z,214.00
2022-09-23T10:38:45.966Z,218.13
2022-09-23T10:41:37.287Z,216.70
2022-09-23T10:44:35.785Z,223.60
2022-09-23T10:47:11.477Z,213.37
2022-09-23T10:49:49.839Z,214.43
2022-09-23T10:52:35.148Z,213.60
2022-09-23T10:55:12.136Z,221.03
2022-09-23T10:57:52.145Z,215.33
2022-09-23T11:00:23.269Z,214.70
2022-09-23T11:03:03.221Z,223.93
2022-09-23T11:05:35.916Z,223.83
2022-09-23T11:08:11.828Z,219.23
2022-09-23T11:10:52.918Z,218.07
2022-09-23T11:13:31.490Z,209.17
2022-09-23T11:16:06.455Z,215.33
2022-09-23T11:18:55.717Z,221.10
2022-09-23T11:21:31.428Z,213.37
2022-09-23T11:24:29.174Z,215.40
2022-09-23T11:27:05.073Z,208.70
2022-09-23T11:29:58.911Z,221.30
2022-09-23T11:32:39.482Z,205.20
2022-09-23T11:35:16.302Z,217.57
2022-09-23T11:37:46.981Z,216.93
2022-09-23T11:40:17.925Z,219.43
2022-09-23T11:42:52.104Z,225.77
2022-09-23T11:45:23.520Z,225.00
2022-09-23T11:47:55.799Z,215.83
2022-09-23T11:50:29.530Z,219.50
2022-09-23T11:53:02.338Z,218.83
2022-09-23T11:55:34.726Z,213.60
2022-09-23T11:58:09.107Z,211.37
2022-09-23T12:00:50.592Z,214.70
2022-09-23T12:03:40.855Z,224.97
2022-09-23T12:06:15.870Z,229.57
2022-09-23T12:08:43.521Z,215.57
2022-09-23T12:11:21.469Z,213.80
2022-09-23T12:13:53.109Z,214.07
2022-09-23T12:16:37.917Z,229.47
2022-09-23T12:19:18.042Z,216.70
2022-09-23T12:22:05.110Z,231.07
2022-09-23T12:24:57.638Z,223.13
2022-09-23T12:27:29.914Z,223.10
2022-09-23T12:30:00.391Z,213.07
2022-09-23T12:32:28.439Z,216.60
2022-09-23T12:34:56.541Z,207.87
2022-09-23T12:37:28.793Z,211.17
2022-09-23T12:40:00.956Z,215.73
2022-09-23T12:42:31.113Z,204.83
2022-09-23T12:45:17.714Z,210.77
2022-09-23T12:47:45.234Z,214.47
2022-09-23T12:50:51.912Z,216.40
2022-09-23T12:53:57.401Z,221.27
2022-09-23T12:56:44.521Z,223.13
2022-09-23T12:59:27.624Z,208.47
2022-09-23T13:01:55.725Z,208.47
2022-09-23T13:04:50.675Z,216.43
2022-09-23T13:07:19.474Z,206.97
2022-09-23T13:09:50.909Z,213.80
2022-09-23T13:12:22.051Z,211.97
2022-09-23T13:14:51.091Z,207.37
2022-09-23T13:17:30.442Z,210.07
2022-09-23T13:20:07.682Z,209.40
2022-09-23T13:22:57.852Z,218.40
2022-09-23T13:25:27.876Z,211.60
2022-09-23T13:27:56.521Z,220.67
2022-09-23T13:30:26.797Z,201.03
2022-09-23T13:33:02.584Z,206.67
2022-09-23T13:35:33.999Z,225.13
2022-09-23T13:38:10.907Z,215.67
2022-09-23T13:40:41.366Z,205.80
2022-09-23T13:43:15.200Z,173.73
2022-09-23T13:45:43.526Z,221.43
2022-09-23T13:48:13.572Z,215.93
2022-09-23T13:50:44.857Z,210.97
2022-09-23T13:53:14.303Z,207.07
2022-09-23T13:55:43.193Z,230.77
2022-09-23T13:58:18.428Z,222.30
2022-09-23T14:00:46.336Z,209.07
2022-09-23T14:03:18.240Z,195.43
2022-09-23T14:05:46.132Z,227.30
2022-09-23T14:08:13.971Z,223.27
2022-09-23T14:10:45.811Z,217.63
2022-09-23T14:13:21.309Z,214.27
2022-09-23T14:15:54.789Z,216.57
2022-09-23T14:18:29.240Z,217.07
2022-09-23T14:20:56.739Z,204.57
2022-09-23T14:23:24.256Z,214.30
2022-09-23T14:25:53.808Z,201.87
2022-09-23T14:28:23.536Z,198.53
2022-09-23T14:30:52.144Z,198.07
2022-09-23T14:33:24.160Z,205.27
2022-09-23T14:35:53.707Z,205.87
2022-09-23T14:38:49.356Z,195.30
2022-09-23T14:41:21.925Z,211.80
2022-09-23T14:43:52.124Z,204.97
2022-09-23T14:46:20.825Z,202.80
2022-09-23T14:48:57.266Z,215.50
2022-09-23T14:51:32.941Z,215.20
2022-09-23T14:54:39.142Z,217.03
2022-09-23T14:57:29.947Z,219.27
2022-09-23T15:00:00.925Z,199.73
2022-09-23T15:02:33.901Z,229.77
2022-09-23T15:05:20.234Z,217.03
2022-09-23T15:07:52.184Z,220.63
2022-09-23T15:10:24.292Z,254.63
2022-09-23T15:12:54.167Z,224.57
2022-09-23T15:15:25.525Z,234.70
2022-09-23T15:17:53.101Z,221.40
2022-09-23T15:20:23.705Z,221.57
2022-09-23T15:22:53.588Z,226.00
2022-09-23T15:25:24.396Z,219.33
2022-09-23T15:28:02.362Z,218.17
2022-09-23T15:30:31.492Z,218.67
2022-09-23T15:33:00.734Z,215.77
2022-09-23T15:35:28.520Z,213.07
2022-09-23T15:37:58.162Z,225.27
2022-09-23T15:40:27.360Z,225.27
2022-09-23T15:42:57.185Z,218.70
2022-09-23T15:45:31.725Z,219.40
2022-09-23T15:48:01.622Z,218.67
2022-09-23T15:50:31.188Z,221.70
2022-09-23T15:52:59.249Z,212.10
2022-09-23T15:55:26.739Z,210.70
2022-09-23T15:57:54.304Z,215.27
2022-09-23T16:00:21.990Z,217.17
2022-09-23T16:02:51.271Z,219.43
2022-09-23T16:05:22.600Z,221.57
2022-09-23T16:07:52.241Z,216.10
2022-09-23T16:10:21.948Z,216.57
2022-09-23T16:12:50.180Z,225.50
2022-09-23T16:15:20.003Z,228.67
2022-09-23T16:17:47.686Z,219.20
2022-09-23T16:20:17.762Z,224.33
2022-09-23T16:22:48.773Z,225.90
2022-09-23T16:25:16.955Z,218.27
2022-09-23T16:27:44.898Z,226.93
2022-09-23T16:30:12.759Z,224.03
2022-09-23T16:32:40.634Z,226.67
2022-09-23T16:35:09.469Z,236.73
2022-09-23T16:37:38.336Z,229.57
2022-09-23T16:40:09.644Z,222.97
2022-09-23T16:42:39.170Z,215.43
2022-09-23T16:45:07.561Z,231.33
2022-09-23T16:47:35.082Z,222.10
2022-09-23T16:50:02.562Z,223.50
2022-09-23T16:52:30.978Z,220.87
2022-09-23T16:54:59.973Z,224.97
2022-09-23T16:57:27.918Z,223.00
2022-09-23T17:00:12.853Z,222.83
2022-09-23T17:02:58.186Z,224.60
2022-09-23T17:05:26.635Z,228.60
2022-09-23T17:07:54.221Z,237.13
2022-09-23T17:10:23.064Z,261.77
2022-09-23T17:12:50.663Z,225.40
2022-09-23T17:15:18.303Z,219.03
2022-09-23T17:17:45.816Z,233.03
2022-09-23T17:20:14.162Z,233.60
2022-09-23T17:22:42.516Z,233.80
2022-09-23T17:25:10.514Z,230.00
2022-09-23T17:27:39.392Z,228.10
2022-09-23T17:30:08.139Z,228.90
2022-09-23T17:32:35.624Z,227.43
2022-09-23T17:35:04.629Z,221.20
2022-09-23T17:37:33.075Z,230.07
2022-09-23T17:40:00.672Z,229.50
2022-09-23T17:42:28.642Z,227.20
2022-09-23T17:44:59.151Z,229.63
2022-09-23T17:47:27.054Z,230.73
2022-09-23T17:49:56.046Z,231.00
2022-09-23T17:52:23.896Z,229.40
2022-09-23T17:54:51.407Z,228.27
2022-09-23T17:57:18.911Z,225.77
2022-09-23T17:59:48.551Z,231.40
2022-09-23T18:02:17.475Z,230.10
2022-09-23T18:04:44.961Z,222.63
2022-09-23T18:07:12.465Z,229.27
2022-09-23T18:09:39.957Z,225.57
2022-09-23T18:12:07.456Z,218.47
2022-09-23T18:14:34.999Z,219.80
2022-09-23T18:17:02.511Z,224.17
2022-09-23T18:19:31.351Z,227.03
2022-09-23T18:22:01.347Z,225.93
2022-09-23T18:24:33.350Z,224.00
2022-09-23T18:27:01.373Z,226.17
2022-09-23T18:29:28.902Z,224.73
2022-09-23T18:31:56.681Z,225.97
2022-09-23T18:34:25.180Z,227.17
2022-09-23T18:36:55.944Z,229.57
2022-09-23T18:39:23.482Z,224.63
2022-09-23T18:41:50.968Z,226.10
2022-09-23T18:44:19.816Z,226.43
2022-09-23T18:46:47.316Z,222.97
2022-09-23T18:49:32.496Z,221.47
2022-09-23T18:52:01.694Z,220.27
2022-09-23T18:54:30.296Z,223.13
2022-09-23T18:56:59.134Z,219.13
2022-09-23T18:59:28.928Z,220.90
2022-09-23T19:01:57.258Z,220.17
2022-09-23T19:04:25.991Z,221.10
2022-09-23T19:06:56.147Z,221.23
2022-09-23T19:09:25.308Z,218.73
2022-09-23T19:11:53.271Z,216.53
2022-09-23T19:14:21.369Z,219.13
2022-09-23T19:16:50.545Z,222.17
2022-09-23T19:19:18.594Z,215.70
2022-09-23T19:21:46.355Z,220.10
2022-09-23T19:24:15.840Z,218.50
2022-09-23T19:26:45.369Z,221.17
2022-09-23T19:29:15.098Z,219.93
2022-09-23T19:31:43.394Z,217.77
2022-09-23T19:34:13.668Z,216.83
2022-09-23T19:36:42.776Z,213.30
2022-09-23T19:39:16.476Z,210.83
2022-09-23T19:41:46.114Z,210.23
2022-09-23T19:44:14.049Z,216.03
2022-09-23T19:46:44.340Z,211.53
2022-09-23T19:49:12.832Z,210.83
2022-09-23T19:51:40.828Z,208.43
2022-09-23T19:54:09.294Z,220.40
2022-09-23T19:56:37.564Z,207.90
2022-09-23T19:59:09.219Z,206.77
2022-09-23T20:01:37.129Z,209.30
2022-09-23T20:04:05.543Z,211.30
2022-09-23T20:06:34.973Z,208.47
2022-09-23T20:09:02.821Z,206.23
2022-09-23T20:11:31.364Z,206.03
2022-09-23T20:14:04.298Z,210.93
2022-09-23T20:16:35.508Z,209.23
2022-09-23T20:19:04.489Z,206.23
2022-09-23T20:21:33.372Z,205.27
2022-09-23T20:24:01.116Z,206.90
2022-09-23T20:26:46.677Z,206.63
2022-09-23T20:29:14.156Z,207.07
2022-09-23T20:31:43.426Z,205.03
2022-09-23T20:34:12.228Z,209.70
2022-09-23T20:36:41.245Z,206.03
2022-09-23T20:39:10.507Z,206.43
2022-09-23T20:41:39.039Z,204.80
2022-09-23T20:44:09.372Z,209.87
2022-09-23T20:46:37.019Z,204.83
2022-09-23T20:49:07.804Z,204.43
2022-09-23T20:51:35.346Z,206.13
2022-09-23T20:54:02.867Z,211.30
2022-09-23T20:56:30.832Z,206.57
2022-09-23T20:59:00.384Z,204.93
2022-09-23T21:01:28.552Z,206.03
2022-09-23T21:03:56.079Z,207.40
2022-09-23T21:06:26.086Z,202.50
2022-09-23T21:08:54.497Z,209.63
2022-09-23T21:11:22.757Z,204.87
2022-09-23T21:13:51.606Z,225.67
2022-09-23T21:16:21.317Z,192.67
2022-09-23T21:18:50.274Z,194.60
2022-09-23T21:21:19.415Z,206.90
2022-09-23T21:23:48.947Z,206.27
2022-09-23T21:26:19.222Z,204.43
2022-09-23T21:28:48.297Z,206.77
2022-09-23T21:31:22.911Z,202.53
2022-09-23T21:33:53.328Z,201.47
2022-09-23T21:36:23.240Z,203.87
2022-09-23T21:38:52.753Z,202.37
2022-09-23T21:41:21.123Z,199.93
2022-09-23T21:43:49.465Z,200.60
2022-09-23T21:46:19.948Z,205.17
2022-09-23T21:48:49.748Z,198.93
2022-09-23T21:51:19.066Z,202.07
2022-09-23T21:53:47.049Z,209.10
2022-09-23T21:56:20.686Z,202.13
2022-09-23T21:58:49.061Z,203.17
2022-09-23T22:01:17.948Z,205.27
2022-09-23T22:03:50.539Z,205.73
2022-09-23T22:06:20.151Z,200.03
2022-09-23T22:08:49.127Z,200.30
2022-09-23T22:11:32.877Z,209.40
2022-09-23T22:14:02.243Z,203.40
2022-09-23T22:16:30.264Z,205.17
2022-09-23T22:19:00.531Z,204.83
2022-09-23T22:21:29.757Z,196.77
2022-09-23T22:24:01.009Z,196.73
2022-09-23T22:26:33.347Z,199.77
2022-09-23T22:29:18.480Z,205.87
2022-09-23T22:32:15.100Z,209.07
2022-09-23T22:34:50.545Z,203.07
2022-09-23T22:37:20.597Z,197.60
2022-09-23T22:39:48.229Z,202.13
2022-09-23T22:42:17.087Z,202.23
2022-09-23T22:44:44.816Z,199.63
2022-09-23T22:47:12.350Z,199.87
2022-09-23T22:49:40.701Z,203.87
2022-09-23T22:52:08.369Z,206.10
2022-09-23T22:54:36.306Z,200.53
2022-09-23T22:57:05.215Z,203.37
2022-09-23T22:59:34.250Z,202.13
2022-09-23T23:02:03.160Z,199.87
2022-09-23T23:04:31.147Z,206.03
2022-09-23T23:06:59.149Z,202.37
2022-09-23T23:09:27.044Z,200.37
2022-09-23T23:11:54.583Z,201.83
2022-09-23T23:14:22.338Z,205.87
2022-09-23T23:16:51.193Z,205.07
2022-09-23T23:19:19.050Z,202.60
2022-09-23T23:21:46.583Z,207.60
2022-09-23T23:24:15.886Z,205.47
2022-09-23T23:26:43.885Z,201.13
2022-09-23T23:29:12.384Z,201.13
2022-09-23T23:31:40.429Z,202.83
2022-09-23T23:34:12.764Z,204.57
2022-09-23T23:36:41.441Z,199.63
2022-09-23T23:39:09.359Z,198.33
2022-09-23T23:41:37.787Z,202.37
2022-09-23T23:44:05.366Z,201.63
2022-09-23T23:46:33.636Z,194.77
2022-09-23T23:49:01.343Z,195.00
2022-09-23T23:51:30.270Z,199.53
2022-09-23T23:53:59.412Z,196.23
2022-09-23T23:56:27.802Z,195.73
2022-09-23T23:58:56.528Z,188.80
